sensor_id;sensor_type;location;lat;lon;timestamp;P1;durP1;ratioP1;P2;durP2;ratioP2
71196;SDS011;58918;51.652;4.864;2024-02-04T00:02:03;6.53;;;3.03;;
71196;SDS011;58918;51.652;4.864;2024-02-04T00:04:33;6.55;;;3.25;;
71196;SDS011;58918;51.652;4.864;2024-02-04T00:07:01;5.55;;;2.85;;
71196;SDS011;58918;51.652;4.864;2024-02-04T00:09:28;6.97;;;3.42;;
71196;SDS011;58918;51.652;4.864;2024-02-04T00:11:58;6.30;;;3.15;;
71196;SDS011;58918;51.652;4.864;2024-02-04T00:14:29;4.97;;;2.60;;
71196;SDS011;58918;51.652;4.864;2024-02-04T00:16:57;4.93;;;2.85;;
71196;SDS011;58918;51.652;4.864;2024-02-04T00:19:25;6.78;;;3.05;;
71196;SDS011;58918;51.652;4.864;2024-02-04T00:21:53;6.07;;;2.60;;
71196;SDS011;58918;51.652;4.864;2024-02-04T00:24:20;6.10;;;2.47;;
71196;SDS011;58918;51.652;4.864;2024-02-04T00:26:47;6.20;;;2.83;;
71196;SDS011;58918;51.652;4.864;2024-02-04T00:29:15;5.70;;;2.67;;
71196;SDS011;58918;51.652;4.864;2024-02-04T00:31:42;6.22;;;3.03;;
71196;SDS011;58918;51.652;4.864;2024-02-04T00:34:09;6.90;;;3.05;;
71196;SDS011;58918;51.652;4.864;2024-02-04T00:36:37;6.30;;;2.80;;
71196;SDS011;58918;51.652;4.864;2024-02-04T00:39:04;10.02;;;2.47;;
71196;SDS011;58918;51.652;4.864;2024-02-04T00:41:33;6.43;;;2.65;;
71196;SDS011;58918;51.652;4.864;2024-02-04T00:44:01;6.20;;;2.78;;
71196;SDS011;58918;51.652;4.864;2024-02-04T00:46:28;5.38;;;2.25;;
71196;SDS011;58918;51.652;4.864;2024-02-04T00:48:55;5.70;;;2.45;;
71196;SDS011;58918;51.652;4.864;2024-02-04T00:51:23;5.20;;;2.78;;
71196;SDS011;58918;51.652;4.864;2024-02-04T00:53:50;5.60;;;2.63;;
71196;SDS011;58918;51.652;4.864;2024-02-04T00:56:17;5.70;;;2.65;;
71196;SDS011;58918;51.652;4.864;2024-02-04T00:58:44;5.40;;;2.50;;
71196;SDS011;58918;51.652;4.864;2024-02-04T01:01:11;5.90;;;2.42;;
71196;SDS011;58918;51.652;4.864;2024-02-04T01:03:39;5.65;;;2.47;;
71196;SDS011;58918;51.652;4.864;2024-02-04T01:06:06;4.97;;;1.98;;
71196;SDS011;58918;51.652;4.864;2024-02-04T01:08:33;4.90;;;2.30;;
71196;SDS011;58918;51.652;4.864;2024-02-04T01:11:01;5.03;;;2.45;;
71196;SDS011;58918;51.652;4.864;2024-02-04T01:13:28;4.65;;;2.35;;
71196;SDS011;58918;51.652;4.864;2024-02-04T01:15:55;6.28;;;2.38;;
71196;SDS011;58918;51.652;4.864;2024-02-04T01:18:23;8.65;;;2.67;;
71196;SDS011;58918;51.652;4.864;2024-02-04T01:20:50;7.65;;;2.20;;
71196;SDS011;58918;51.652;4.864;2024-02-04T01:23:18;5.03;;;2.20;;
71196;SDS011;58918;51.652;4.864;2024-02-04T01:25:46;7.30;;;2.25;;
71196;SDS011;58918;51.652;4.864;2024-02-04T01:28:13;7.63;;;2.38;;
71196;SDS011;58918;51.652;4.864;2024-02-04T01:30:40;5.43;;;2.30;;
71196;SDS011;58918;51.652;4.864;2024-02-04T01:33:07;5.25;;;2.28;;
71196;SDS011;58918;51.652;4.864;2024-02-04T01:35:35;4.07;;;2.10;;
71196;SDS011;58918;51.652;4.864;2024-02-04T01:38:02;11.30;;;2.60;;
71196;SDS011;58918;51.652;4.864;2024-02-04T01:40:29;5.75;;;2.33;;
71196;SDS011;58918;51.652;4.864;2024-02-04T01:42:56;5.60;;;2.33;;
71196;SDS011;58918;51.652;4.864;2024-02-04T01:45:24;5.03;;;2.30;;
71196;SDS011;58918;51.652;4.864;2024-02-04T01:47:51;5.38;;;2.08;;
71196;SDS011;58918;51.652;4.864;2024-02-04T01:50:19;6.18;;;2.08;;
71196;SDS011;58918;51.652;4.864;2024-02-04T01:52:47;4.43;;;2.00;;
71196;SDS011;58918;51.652;4.864;2024-02-04T01:55:14;7.50;;;2.22;;
71196;SDS011;58918;51.652;4.864;2024-02-04T01:57:41;6.03;;;2.30;;
71196;SDS011;58918;51.652;4.864;2024-02-04T02:00:09;5.03;;;2.53;;
71196;SDS011;58918;51.652;4.864;2024-02-04T02:02:40;6.72;;;2.45;;
71196;SDS011;58918;51.652;4.864;2024-02-04T02:05:08;4.90;;;2.00;;
71196;SDS011;58918;51.652;4.864;2024-02-04T02:07:36;6.05;;;2.33;;
71196;SDS011;58918;51.652;4.864;2024-02-04T02:10:03;5.65;;;2.03;;
71196;SDS011;58918;51.652;4.864;2024-02-04T02:12:35;6.15;;;1.83;;
71196;SDS011;58918;51.652;4.864;2024-02-04T02:17:38;6.10;;;2.30;;
71196;SDS011;58918;51.652;4.864;2024-02-04T02:20:13;4.53;;;2.22;;
71196;SDS011;58918;51.652;4.864;2024-02-04T02:22:46;5.30;;;2.22;;
71196;SDS011;58918;51.652;4.864;2024-02-04T02:25:14;5.43;;;1.92;;
71196;SDS011;58918;51.652;4.864;2024-02-04T02:27:48;6.20;;;2.25;;
71196;SDS011;58918;51.652;4.864;2024-02-04T02:30:16;5.65;;;2.35;;
71196;SDS011;58918;51.652;4.864;2024-02-04T02:32:44;5.22;;;1.92;;
71196;SDS011;58918;51.652;4.864;2024-02-04T02:35:12;5.30;;;2.00;;
71196;SDS011;58918;51.652;4.864;2024-02-04T02:37:55;5.60;;;1.90;;
71196;SDS011;58918;51.652;4.864;2024-02-04T02:40:29;4.47;;;1.80;;
71196;SDS011;58918;51.652;4.864;2024-02-04T02:42:56;6.32;;;1.80;;
71196;SDS011;58918;51.652;4.864;2024-02-04T02:45:24;5.07;;;2.08;;
71196;SDS011;58918;51.652;4.864;2024-02-04T02:47:52;6.28;;;2.03;;
71196;SDS011;58918;51.652;4.864;2024-02-04T02:50:21;5.40;;;2.10;;
71196;SDS011;58918;51.652;4.864;2024-02-04T02:52:48;3.97;;;1.83;;
71196;SDS011;58918;51.652;4.864;2024-02-04T02:55:15;4.53;;;1.70;;
71196;SDS011;58918;51.652;4.864;2024-02-04T02:57:42;5.25;;;2.13;;
71196;SDS011;58918;51.652;4.864;2024-02-04T03:00:10;5.47;;;1.98;;
71196;SDS011;58918;51.652;4.864;2024-02-04T03:02:37;5.97;;;2.08;;
71196;SDS011;58918;51.652;4.864;2024-02-04T03:05:04;4.80;;;1.83;;
71196;SDS011;58918;51.652;4.864;2024-02-04T03:07:31;3.42;;;1.52;;
71196;SDS011;58918;51.652;4.864;2024-02-04T03:09:59;6.38;;;1.60;;
71196;SDS011;58918;51.652;4.864;2024-02-04T03:12:26;4.72;;;2.08;;
71196;SDS011;58918;51.652;4.864;2024-02-04T03:14:53;4.15;;;1.88;;
71196;SDS011;58918;51.652;4.864;2024-02-04T03:17:20;6.25;;;2.00;;
71196;SDS011;58918;51.652;4.864;2024-02-04T03:19:48;5.15;;;1.77;;
71196;SDS011;58918;51.652;4.864;2024-02-04T03:22:18;6.40;;;1.80;;
71196;SDS011;58918;51.652;4.864;2024-02-04T03:24:46;5.15;;;1.80;;
71196;SDS011;58918;51.652;4.864;2024-02-04T03:27:16;4.88;;;2.13;;
71196;SDS011;58918;51.652;4.864;2024-02-04T03:29:43;6.53;;;1.60;;
71196;SDS011;58918;51.652;4.864;2024-02-04T03:32:11;6.00;;;1.88;;
71196;SDS011;58918;51.652;4.864;2024-02-04T03:34:38;5.18;;;1.70;;
71196;SDS011;58918;51.652;4.864;2024-02-04T03:37:06;4.30;;;1.77;;
71196;SDS011;58918;51.652;4.864;2024-02-04T03:39:33;3.75;;;1.50;;
71196;SDS011;58918;51.652;4.864;2024-02-04T03:42:00;4.93;;;1.55;;
71196;SDS011;58918;51.652;4.864;2024-02-04T03:44:28;4.88;;;1.73;;
71196;SDS011;58918;51.652;4.864;2024-02-04T03:46:55;5.93;;;1.90;;
71196;SDS011;58918;51.652;4.864;2024-02-04T03:49:22;3.97;;;1.60;;
71196;SDS011;58918;51.652;4.864;2024-02-04T03:51:49;4.82;;;1.90;;
71196;SDS011;58918;51.652;4.864;2024-02-04T03:54:17;5.18;;;1.98;;
71196;SDS011;58918;51.652;4.864;2024-02-04T03:56:45;5.55;;;1.77;;
71196;SDS011;58918;51.652;4.864;2024-02-04T03:59:12;3.65;;;1.50;;
71196;SDS011;58918;51.652;4.864;2024-02-04T04:01:39;5.05;;;1.58;;
71196;SDS011;58918;51.652;4.864;2024-02-04T04:04:07;3.85;;;1.55;;
71196;SDS011;58918;51.652;4.864;2024-02-04T04:06:34;5.95;;;2.15;;
71196;SDS011;58918;51.652;4.864;2024-02-04T04:09:01;4.40;;;1.75;;
71196;SDS011;58918;51.652;4.864;2024-02-04T04:11:28;4.72;;;1.92;;
71196;SDS011;58918;51.652;4.864;2024-02-04T04:13:56;4.78;;;1.67;;
71196;SDS011;58918;51.652;4.864;2024-02-04T04:16:23;3.75;;;1.48;;
71196;SDS011;58918;51.652;4.864;2024-02-04T04:18:50;5.18;;;1.40;;
71196;SDS011;58918;51.652;4.864;2024-02-04T04:21:17;5.50;;;1.60;;
71196;SDS011;58918;51.652;4.864;2024-02-04T04:23:45;5.00;;;2.05;;
71196;SDS011;58918;51.652;4.864;2024-02-04T04:26:12;4.63;;;1.67;;
71196;SDS011;58918;51.652;4.864;2024-02-04T04:28:39;4.68;;;1.70;;
71196;SDS011;58918;51.652;4.864;2024-02-04T04:31:06;4.90;;;1.73;;
71196;SDS011;58918;51.652;4.864;2024-02-04T04:33:35;5.65;;;1.60;;
71196;SDS011;58918;51.652;4.864;2024-02-04T04:36:02;3.80;;;1.30;;
71196;SDS011;58918;51.652;4.864;2024-02-04T04:38:30;6.65;;;2.35;;
71196;SDS011;58918;51.652;4.864;2024-02-04T04:40:57;5.78;;;1.60;;
71196;SDS011;58918;51.652;4.864;2024-02-04T04:43:24;4.55;;;1.70;;
71196;SDS011;58918;51.652;4.864;2024-02-04T04:45:53;4.13;;;1.60;;
71196;SDS011;58918;51.652;4.864;2024-02-04T04:48:20;6.38;;;1.45;;
71196;SDS011;58918;51.652;4.864;2024-02-04T04:50:47;4.55;;;1.75;;
71196;SDS011;58918;51.652;4.864;2024-02-04T04:53:14;4.53;;;1.60;;
71196;SDS011;58918;51.652;4.864;2024-02-04T04:55:42;5.13;;;1.67;;
71196;SDS011;58918;51.652;4.864;2024-02-04T04:58:09;5.00;;;1.50;;
71196;SDS011;58918;51.652;4.864;2024-02-04T05:00:36;5.18;;;1.42;;
71196;SDS011;58918;51.652;4.864;2024-02-04T05:03:03;3.20;;;1.27;;
71196;SDS011;58918;51.652;4.864;2024-02-04T05:05:31;5.05;;;1.10;;
71196;SDS011;58918;51.652;4.864;2024-02-04T05:07:59;3.47;;;1.38;;
71196;SDS011;58918;51.652;4.864;2024-02-04T05:10:26;3.75;;;1.33;;
71196;SDS011;58918;51.652;4.864;2024-02-04T05:12:53;5.95;;;1.50;;
71196;SDS011;58918;51.652;4.864;2024-02-04T05:15:20;4.03;;;1.40;;
71196;SDS011;58918;51.652;4.864;2024-02-04T05:17:48;4.18;;;1.50;;
71196;SDS011;58918;51.652;4.864;2024-02-04T05:20:15;3.75;;;1.40;;
71196;SDS011;58918;51.652;4.864;2024-02-04T05:22:42;3.83;;;1.35;;
71196;SDS011;58918;51.652;4.864;2024-02-04T05:25:09;4.15;;;1.52;;
71196;SDS011;58918;51.652;4.864;2024-02-04T05:27:37;3.55;;;1.25;;
71196;SDS011;58918;51.652;4.864;2024-02-04T05:30:08;3.60;;;1.38;;
71196;SDS011;58918;51.652;4.864;2024-02-04T05:32:35;5.35;;;1.55;;
71196;SDS011;58918;51.652;4.864;2024-02-04T05:35:03;5.10;;;1.48;;
71196;SDS011;58918;51.652;4.864;2024-02-04T05:37:30;4.88;;;1.27;;
71196;SDS011;58918;51.652;4.864;2024-02-04T05:39:57;3.78;;;1.20;;
71196;SDS011;58918;51.652;4.864;2024-02-04T05:42:25;3.20;;;1.48;;
71196;SDS011;58918;51.652;4.864;2024-02-04T05:44:52;3.30;;;1.17;;
71196;SDS011;58918;51.652;4.864;2024-02-04T05:47:19;4.78;;;1.35;;
71196;SDS011;58918;51.652;4.864;2024-02-04T05:49:47;6.22;;;1.55;;
71196;SDS011;58918;51.652;4.864;2024-02-04T05:52:14;3.95;;;1.10;;
71196;SDS011;58918;51.652;4.864;2024-02-04T05:54:41;3.88;;;1.20;;
71196;SDS011;58918;51.652;4.864;2024-02-04T05:57:09;4.70;;;1.58;;
71196;SDS011;58918;51.652;4.864;2024-02-04T05:59:37;3.78;;;1.55;;
71196;SDS011;58918;51.652;4.864;2024-02-04T06:02:05;3.38;;;1.20;;
71196;SDS011;58918;51.652;4.864;2024-02-04T06:04:33;4.40;;;1.67;;
71196;SDS011;58918;51.652;4.864;2024-02-04T06:07:01;5.85;;;1.52;;
71196;SDS011;58918;51.652;4.864;2024-02-04T06:09:28;3.78;;;1.00;;
71196;SDS011;58918;51.652;4.864;2024-02-04T06:11:56;5.43;;;1.42;;
71196;SDS011;58918;51.652;4.864;2024-02-04T06:14:23;3.45;;;1.25;;
71196;SDS011;58918;51.652;4.864;2024-02-04T06:16:50;3.75;;;1.23;;
71196;SDS011;58918;51.652;4.864;2024-02-04T06:19:17;3.53;;;1.20;;
71196;SDS011;58918;51.652;4.864;2024-02-04T06:21:44;4.18;;;1.25;;
71196;SDS011;58918;51.652;4.864;2024-02-04T06:24:11;3.05;;;1.10;;
71196;SDS011;58918;51.652;4.864;2024-02-04T06:26:39;4.18;;;1.27;;
71196;SDS011;58918;51.652;4.864;2024-02-04T06:29:07;2.50;;;0.93;;
71196;SDS011;58918;51.652;4.864;2024-02-04T06:31:34;4.72;;;1.10;;
71196;SDS011;58918;51.652;4.864;2024-02-04T06:34:01;3.55;;;1.30;;
71196;SDS011;58918;51.652;4.864;2024-02-04T06:36:29;3.95;;;1.48;;
71196;SDS011;58918;51.652;4.864;2024-02-04T06:38:56;4.03;;;1.30;;
71196;SDS011;58918;51.652;4.864;2024-02-04T06:41:23;3.80;;;1.20;;
71196;SDS011;58918;51.652;4.864;2024-02-04T06:43:50;3.63;;;1.13;;
71196;SDS011;58918;51.652;4.864;2024-02-04T06:46:27;4.05;;;1.10;;
71196;SDS011;58918;51.652;4.864;2024-02-04T06:48:54;3.03;;;1.10;;
71196;SDS011;58918;51.652;4.864;2024-02-04T06:51:22;4.47;;;1.38;;
71196;SDS011;58918;51.652;4.864;2024-02-04T06:53:49;5.47;;;1.38;;
71196;SDS011;58918;51.652;4.864;2024-02-04T06:56:16;2.90;;;1.10;;
71196;SDS011;58918;51.652;4.864;2024-02-04T06:58:44;5.13;;;1.20;;
71196;SDS011;58918;51.652;4.864;2024-02-04T07:01:11;4.50;;;1.17;;
71196;SDS011;58918;51.652;4.864;2024-02-04T07:03:38;3.63;;;0.95;;
71196;SDS011;58918;51.652;4.864;2024-02-04T07:06:06;4.10;;;1.10;;
71196;SDS011;58918;51.652;4.864;2024-02-04T07:08:34;9.07;;;1.27;;
71196;SDS011;58918;51.652;4.864;2024-02-04T07:11:01;5.22;;;1.92;;
71196;SDS011;58918;51.652;4.864;2024-02-04T07:13:29;17.08;;;1.63;;
71196;SDS011;58918;51.652;4.864;2024-02-04T07:15:56;3.10;;;1.17;;
71196;SDS011;58918;51.652;4.864;2024-02-04T07:18:24;5.75;;;1.10;;
71196;SDS011;58918;51.652;4.864;2024-02-04T07:20:51;3.75;;;1.23;;
71196;SDS011;58918;51.652;4.864;2024-02-04T07:23:19;5.22;;;1.20;;
71196;SDS011;58918;51.652;4.864;2024-02-04T07:25:46;4.13;;;1.23;;
71196;SDS011;58918;51.652;4.864;2024-02-04T07:28:13;6.28;;;0.90;;
71196;SDS011;58918;51.652;4.864;2024-02-04T07:30:40;4.13;;;1.10;;
71196;SDS011;58918;51.652;4.864;2024-02-04T07:33:08;6.57;;;1.30;;
71196;SDS011;58918;51.652;4.864;2024-02-04T07:35:35;5.55;;;1.10;;
71196;SDS011;58918;51.652;4.864;2024-02-04T07:38:02;4.00;;;1.17;;
71196;SDS011;58918;51.652;4.864;2024-02-04T07:40:29;4.32;;;1.20;;
71196;SDS011;58918;51.652;4.864;2024-02-04T07:42:57;3.25;;;1.10;;
71196;SDS011;58918;51.652;4.864;2024-02-04T07:45:24;3.50;;;1.00;;
71196;SDS011;58918;51.652;4.864;2024-02-04T07:47:52;3.42;;;1.08;;
71196;SDS011;58918;51.652;4.864;2024-02-04T07:50:19;3.05;;;1.00;;
71196;SDS011;58918;51.652;4.864;2024-02-04T07:52:46;4.45;;;1.10;;
71196;SDS011;58918;51.652;4.864;2024-02-04T07:55:13;3.03;;;0.95;;
71196;SDS011;58918;51.652;4.864;2024-02-04T07:57:41;3.50;;;1.30;;
71196;SDS011;58918;51.652;4.864;2024-02-04T08:00:08;4.93;;;1.15;;
71196;SDS011;58918;51.652;4.864;2024-02-04T08:02:39;2.72;;;1.00;;
71196;SDS011;58918;51.652;4.864;2024-02-04T08:05:06;2.65;;;1.02;;
71196;SDS011;58918;51.652;4.864;2024-02-04T08:07:34;4.43;;;1.00;;
71196;SDS011;58918;51.652;4.864;2024-02-04T08:10:01;5.68;;;1.30;;
71196;SDS011;58918;51.652;4.864;2024-02-04T08:12:28;6.05;;;1.40;;
71196;SDS011;58918;51.652;4.864;2024-02-04T08:14:56;3.35;;;1.02;;
71196;SDS011;58918;51.652;4.864;2024-02-04T08:17:23;4.13;;;1.00;;
71196;SDS011;58918;51.652;4.864;2024-02-04T08:19:50;4.18;;;1.17;;
71196;SDS011;58918;51.652;4.864;2024-02-04T08:22:18;3.92;;;1.10;;
71196;SDS011;58918;51.652;4.864;2024-02-04T08:24:45;4.20;;;1.15;;
71196;SDS011;58918;51.652;4.864;2024-02-04T08:27:13;5.13;;;0.77;;
71196;SDS011;58918;51.652;4.864;2024-02-04T08:29:44;3.60;;;1.13;;
71196;SDS011;58918;51.652;4.864;2024-02-04T08:32:11;4.88;;;0.90;;
71196;SDS011;58918;51.652;4.864;2024-02-04T08:34:39;3.50;;;0.82;;
71196;SDS011;58918;51.652;4.864;2024-02-04T08:37:07;3.00;;;1.00;;
71196;SDS011;58918;51.652;4.864;2024-02-04T08:39:35;5.88;;;1.10;;
71196;SDS011;58918;51.652;4.864;2024-02-04T08:42:02;3.92;;;1.23;;
71196;SDS011;58918;51.652;4.864;2024-02-04T08:44:30;5.00;;;1.02;;
71196;SDS011;58918;51.652;4.864;2024-02-04T08:47:05;2.85;;;0.80;;
71196;SDS011;58918;51.652;4.864;2024-02-04T08:49:36;3.95;;;0.95;;
71196;SDS011;58918;51.652;4.864;2024-02-04T08:52:04;3.67;;;0.95;;
71196;SDS011;58918;51.652;4.864;2024-02-04T08:54:31;3.78;;;1.10;;
71196;SDS011;58918;51.652;4.864;2024-02-04T08:56:58;4.60;;;1.00;;
71196;SDS011;58918;51.652;4.864;2024-02-04T08:59:25;4.68;;;1.00;;
71196;SDS011;58918;51.652;4.864;2024-02-04T09:01:53;2.80;;;1.00;;
71196;SDS011;58918;51.652;4.864;2024-02-04T09:04:20;2.78;;;1.20;;
71196;SDS011;58918;51.652;4.864;2024-02-04T09:06:48;3.80;;;1.13;;
71196;SDS011;58918;51.652;4.864;2024-02-04T09:09:16;3.47;;;0.70;;
71196;SDS011;58918;51.652;4.864;2024-02-04T09:11:43;4.05;;;1.00;;
71196;SDS011;58918;51.652;4.864;2024-02-04T09:14:10;2.80;;;1.00;;
71196;SDS011;58918;51.652;4.864;2024-02-04T09:16:38;2.70;;;0.77;;
71196;SDS011;58918;51.652;4.864;2024-02-04T09:19:05;2.53;;;0.80;;
71196;SDS011;58918;51.652;4.864;2024-02-04T09:21:33;4.22;;;0.80;;
71196;SDS011;58918;51.652;4.864;2024-02-04T09:24:00;3.40;;;0.90;;
71196;SDS011;58918;51.652;4.864;2024-02-04T09:26:28;2.63;;;0.90;;
71196;SDS011;58918;51.652;4.864;2024-02-04T09:28:55;3.65;;;0.93;;
71196;SDS011;58918;51.652;4.864;2024-02-04T09:31:22;3.45;;;0.90;;
71196;SDS011;58918;51.652;4.864;2024-02-04T09:33:50;2.30;;;0.80;;
71196;SDS011;58918;51.652;4.864;2024-02-04T09:36:17;2.00;;;0.68;;
71196;SDS011;58918;51.652;4.864;2024-02-04T09:38:45;3.88;;;0.80;;
71196;SDS011;58918;51.652;4.864;2024-02-04T09:41:12;4.45;;;1.00;;
71196;SDS011;58918;51.652;4.864;2024-02-04T09:43:39;2.15;;;0.77;;
71196;SDS011;58918;51.652;4.864;2024-02-04T09:46:07;3.55;;;0.80;;
71196;SDS011;58918;51.652;4.864;2024-02-04T09:48:34;2.75;;;0.70;;
71196;SDS011;58918;51.652;4.864;2024-02-04T09:51:03;3.35;;;0.90;;
71196;SDS011;58918;51.652;4.864;2024-02-04T09:53:32;2.85;;;0.98;;
71196;SDS011;58918;51.652;4.864;2024-02-04T09:56:01;2.63;;;0.75;;
71196;SDS011;58918;51.652;4.864;2024-02-04T09:58:29;2.58;;;0.77;;
71196;SDS011;58918;51.652;4.864;2024-02-04T10:00:57;1.75;;;0.60;;
71196;SDS011;58918;51.652;4.864;2024-02-04T10:03:26;2.63;;;0.90;;
71196;SDS011;58918;51.652;4.864;2024-02-04T10:05:54;3.03;;;0.90;;
71196;SDS011;58918;51.652;4.864;2024-02-04T10:08:22;2.72;;;0.80;;
71196;SDS011;58918;51.652;4.864;2024-02-04T10:10:50;2.05;;;0.77;;
71196;SDS011;58918;51.652;4.864;2024-02-04T10:13:17;3.92;;;0.80;;
71196;SDS011;58918;51.652;4.864;2024-02-04T10:15:45;4.03;;;0.90;;
71196;SDS011;58918;51.652;4.864;2024-02-04T10:18:12;2.90;;;0.75;;
71196;SDS011;58918;51.652;4.864;2024-02-04T10:20:40;3.60;;;1.02;;
71196;SDS011;58918;51.652;4.864;2024-02-04T10:23:07;2.22;;;0.80;;
71196;SDS011;58918;51.652;4.864;2024-02-04T10:25:34;2.30;;;1.02;;
71196;SDS011;58918;51.652;4.864;2024-02-04T10:28:01;2.75;;;1.02;;
71196;SDS011;58918;51.652;4.864;2024-02-04T10:30:28;2.47;;;0.80;;
71196;SDS011;58918;51.652;4.864;2024-02-04T10:32:56;4.10;;;0.90;;
71196;SDS011;58918;51.652;4.864;2024-02-04T10:35:23;2.70;;;0.80;;
71196;SDS011;58918;51.652;4.864;2024-02-04T10:37:51;2.88;;;0.70;;
71196;SDS011;58918;51.652;4.864;2024-02-04T10:40:19;2.55;;;0.65;;
71196;SDS011;58918;51.652;4.864;2024-02-04T10:42:46;2.65;;;0.88;;
71196;SDS011;58918;51.652;4.864;2024-02-04T10:45:13;3.17;;;0.80;;
71196;SDS011;58918;51.652;4.864;2024-02-04T10:47:44;2.50;;;0.73;;
71196;SDS011;58918;51.652;4.864;2024-02-04T10:50:14;2.78;;;0.82;;
71196;SDS011;58918;51.652;4.864;2024-02-04T10:52:42;2.70;;;0.70;;
71196;SDS011;58918;51.652;4.864;2024-02-04T10:55:12;2.58;;;0.80;;
71196;SDS011;58918;51.652;4.864;2024-02-04T10:57:41;2.30;;;0.70;;
71196;SDS011;58918;51.652;4.864;2024-02-04T11:00:09;2.30;;;0.70;;
71196;SDS011;58918;51.652;4.864;2024-02-04T11:02:38;3.33;;;1.00;;
71196;SDS011;58918;51.652;4.864;2024-02-04T11:05:07;2.90;;;0.80;;
71196;SDS011;58918;51.652;4.864;2024-02-04T11:07:35;3.85;;;1.05;;
71196;SDS011;58918;51.652;4.864;2024-02-04T11:10:02;4.45;;;1.08;;
71196;SDS011;58918;51.652;4.864;2024-02-04T11:12:30;2.95;;;1.00;;
71196;SDS011;58918;51.652;4.864;2024-02-04T11:15:00;3.35;;;1.00;;
71196;SDS011;58918;51.652;4.864;2024-02-04T11:20:15;2.75;;;1.08;;
71196;SDS011;58918;51.652;4.864;2024-02-04T11:28:00;3.33;;;1.02;;
71196;SDS011;58918;51.652;4.864;2024-02-04T11:30:31;3.47;;;1.30;;
71196;SDS011;58918;51.652;4.864;2024-02-04T11:33:09;2.90;;;0.75;;
71196;SDS011;58918;51.652;4.864;2024-02-04T11:35:37;3.38;;;0.90;;
71196;SDS011;58918;51.652;4.864;2024-02-04T11:38:05;4.05;;;1.05;;
71196;SDS011;58918;51.652;4.864;2024-02-04T11:40:36;7.18;;;1.00;;
71196;SDS011;58918;51.652;4.864;2024-02-04T11:43:05;9.23;;;1.00;;
71196;SDS011;58918;51.652;4.864;2024-02-04T11:45:32;5.75;;;1.17;;
71196;SDS011;58918;51.652;4.864;2024-02-04T11:48:00;3.65;;;1.23;;
71196;SDS011;58918;51.652;4.864;2024-02-04T11:50:29;7.80;;;1.23;;
71196;SDS011;58918;51.652;4.864;2024-02-04T11:53:10;3.05;;;1.00;;
71196;SDS011;58918;51.652;4.864;2024-02-04T11:55:41;2.88;;;1.00;;
71196;SDS011;58918;51.652;4.864;2024-02-04T11:58:11;4.22;;;1.40;;
71196;SDS011;58918;51.652;4.864;2024-02-04T12:00:42;5.18;;;1.00;;
71196;SDS011;58918;51.652;4.864;2024-02-04T12:03:11;5.90;;;1.05;;
71196;SDS011;58918;51.652;4.864;2024-02-04T12:05:38;2.60;;;0.80;;
71196;SDS011;58918;51.652;4.864;2024-02-04T12:08:07;3.47;;;0.90;;
71196;SDS011;58918;51.652;4.864;2024-02-04T12:10:35;3.55;;;0.75;;
71196;SDS011;58918;51.652;4.864;2024-02-04T12:13:03;2.33;;;0.70;;
71196;SDS011;58918;51.652;4.864;2024-02-04T12:15:31;5.60;;;1.00;;
71196;SDS011;58918;51.652;4.864;2024-02-04T12:18:05;1.75;;;0.68;;
71196;SDS011;58918;51.652;4.864;2024-02-04T12:20:33;3.17;;;1.13;;
71196;SDS011;58918;51.652;4.864;2024-02-04T12:23:02;3.92;;;0.90;;
71196;SDS011;58918;51.652;4.864;2024-02-04T12:28:00;2.60;;;0.80;;
71196;SDS011;58918;51.652;4.864;2024-02-04T12:30:29;2.75;;;0.80;;
71196;SDS011;58918;51.652;4.864;2024-02-04T12:33:00;4.65;;;0.70;;
71196;SDS011;58918;51.652;4.864;2024-02-04T12:35:28;3.67;;;1.05;;
71196;SDS011;58918;51.652;4.864;2024-02-04T12:37:56;3.22;;;0.85;;
71196;SDS011;58918;51.652;4.864;2024-02-04T12:40:24;2.78;;;0.80;;
71196;SDS011;58918;51.652;4.864;2024-02-04T12:45:23;3.28;;;0.60;;
71196;SDS011;58918;51.652;4.864;2024-02-04T12:47:54;3.90;;;0.80;;
71196;SDS011;58918;51.652;4.864;2024-02-04T12:50:22;4.80;;;0.80;;
71196;SDS011;58918;51.652;4.864;2024-02-04T12:52:50;3.88;;;0.80;;
71196;SDS011;58918;51.652;4.864;2024-02-04T12:55:27;3.88;;;0.90;;
71196;SDS011;58918;51.652;4.864;2024-02-04T12:58:15;2.50;;;0.70;;
71196;SDS011;58918;51.652;4.864;2024-02-04T13:00:44;3.45;;;0.70;;
71196;SDS011;58918;51.652;4.864;2024-02-04T13:03:14;2.60;;;0.90;;
71196;SDS011;58918;51.652;4.864;2024-02-04T13:05:42;4.15;;;1.10;;
71196;SDS011;58918;51.652;4.864;2024-02-04T13:08:11;2.90;;;0.68;;
71196;SDS011;58918;51.652;4.864;2024-02-04T13:10:38;3.72;;;0.90;;
71196;SDS011;58918;51.652;4.864;2024-02-04T13:13:09;4.03;;;0.90;;
71196;SDS011;58918;51.652;4.864;2024-02-04T13:15:40;3.13;;;0.80;;
71196;SDS011;58918;51.652;4.864;2024-02-04T13:18:07;2.65;;;0.90;;
71196;SDS011;58918;51.652;4.864;2024-02-04T13:20:38;7.50;;;1.00;;
71196;SDS011;58918;51.652;4.864;2024-02-04T13:25:34;5.32;;;0.85;;
71196;SDS011;58918;51.652;4.864;2024-02-04T13:28:01;2.92;;;0.88;;
71196;SDS011;58918;51.652;4.864;2024-02-04T13:30:29;2.55;;;0.85;;
71196;SDS011;58918;51.652;4.864;2024-02-04T13:32:57;2.50;;;0.70;;
71196;SDS011;58918;51.652;4.864;2024-02-04T13:35:24;4.47;;;0.82;;
71196;SDS011;58918;51.652;4.864;2024-02-04T13:37:52;2.08;;;0.70;;
71196;SDS011;58918;51.652;4.864;2024-02-04T13:40:21;1.58;;;0.63;;
71196;SDS011;58918;51.652;4.864;2024-02-04T13:42:50;2.00;;;0.60;;
71196;SDS011;58918;51.652;4.864;2024-02-04T13:45:18;3.80;;;0.73;;
71196;SDS011;58918;51.652;4.864;2024-02-04T13:47:46;3.67;;;0.73;;
71196;SDS011;58918;51.652;4.864;2024-02-04T13:50:13;1.98;;;0.70;;
71196;SDS011;58918;51.652;4.864;2024-02-04T13:52:41;2.72;;;0.75;;
71196;SDS011;58918;51.652;4.864;2024-02-04T13:55:08;4.80;;;0.90;;
71196;SDS011;58918;51.652;4.864;2024-02-04T13:57:36;3.13;;;0.77;;
71196;SDS011;58918;51.652;4.864;2024-02-04T14:00:03;3.58;;;0.60;;
71196;SDS011;58918;51.652;4.864;2024-02-04T14:02:32;3.13;;;0.60;;
71196;SDS011;58918;51.652;4.864;2024-02-04T14:04:59;2.10;;;0.70;;
71196;SDS011;58918;51.652;4.864;2024-02-04T14:07:27;4.53;;;0.80;;
71196;SDS011;58918;51.652;4.864;2024-02-04T14:09:55;3.30;;;0.75;;
71196;SDS011;58918;51.652;4.864;2024-02-04T14:12:22;2.10;;;0.70;;
71196;SDS011;58918;51.652;4.864;2024-02-04T14:14:50;2.22;;;0.63;;
71196;SDS011;58918;51.652;4.864;2024-02-04T14:17:17;1.27;;;0.60;;
71196;SDS011;58918;51.652;4.864;2024-02-04T14:19:44;2.38;;;0.80;;
71196;SDS011;58918;51.652;4.864;2024-02-04T14:22:15;2.08;;;0.60;;
71196;SDS011;58918;51.652;4.864;2024-02-04T14:24:46;1.73;;;0.60;;
71196;SDS011;58918;51.652;4.864;2024-02-04T14:27:14;3.28;;;0.70;;
71196;SDS011;58918;51.652;4.864;2024-02-04T14:29:41;2.72;;;0.85;;
71196;SDS011;58918;51.652;4.864;2024-02-04T14:32:08;2.28;;;0.70;;
71196;SDS011;58918;51.652;4.864;2024-02-04T14:34:36;2.20;;;0.73;;
71196;SDS011;58918;51.652;4.864;2024-02-04T14:37:04;2.22;;;0.70;;
71196;SDS011;58918;51.652;4.864;2024-02-04T14:39:31;2.92;;;0.60;;
71196;SDS011;58918;51.652;4.864;2024-02-04T14:41:59;1.63;;;0.73;;
71196;SDS011;58918;51.652;4.864;2024-02-04T14:44:26;1.80;;;0.60;;
71196;SDS011;58918;51.652;4.864;2024-02-04T14:46:53;3.30;;;0.80;;
71196;SDS011;58918;51.652;4.864;2024-02-04T14:49:20;2.55;;;0.75;;
71196;SDS011;58918;51.652;4.864;2024-02-04T14:51:47;1.25;;;0.60;;
71196;SDS011;58918;51.652;4.864;2024-02-04T14:54:15;1.65;;;0.57;;
71196;SDS011;58918;51.652;4.864;2024-02-04T14:56:42;1.63;;;0.60;;
71196;SDS011;58918;51.652;4.864;2024-02-04T14:59:10;2.30;;;0.77;;
71196;SDS011;58918;51.652;4.864;2024-02-04T15:01:48;2.35;;;0.80;;
71196;SDS011;58918;51.652;4.864;2024-02-04T15:06:44;2.33;;;0.70;;
71196;SDS011;58918;51.652;4.864;2024-02-04T15:09:12;1.75;;;0.75;;
71196;SDS011;58918;51.652;4.864;2024-02-04T15:11:40;2.50;;;0.63;;
71196;SDS011;58918;51.652;4.864;2024-02-04T15:14:08;2.35;;;0.70;;